createdAt,value
2022-11-10T00:00:28.161Z,95952.00
2022-11-10T00:04:49.609Z,95953.00
2022-11-10T00:09:12.475Z,95966.00
2022-11-10T00:13:56.183Z,95973.00
2022-11-10T00:18:17.466Z,95975.00
2022-11-10T00:22:40.038Z,95980.00
2022-11-10T00:27:03.281Z,95975.00
2022-11-10T00:31:24.673Z,95985.00
2022-11-10T00:35:45.821Z,95993.00
2022-11-10T00:40:07.880Z,95994.00
2022-11-10T00:44:30.345Z,96004.00
2022-11-10T00:48:51.464Z,96004.00
2022-11-10T00:53:12.599Z,96007.00
2022-11-10T00:57:33.728Z,96009.00
2022-11-10T01:01:56.586Z,96018.00
2022-11-10T01:06:19.192Z,96019.00
2022-11-10T01:10:40.561Z,96027.00
2022-11-10T01:15:01.691Z,96022.00
2022-11-10T01:19:24.194Z,96021.00
2022-11-10T01:23:45.338Z,96026.00
2022-11-10T01:28:06.418Z,96035.00
2022-11-10T01:32:27.737Z,96027.00
2022-11-10T01:36:50.533Z,96035.00
2022-11-10T01:41:14.839Z,96024.00
2022-11-10T01:45:46.401Z,96037.00
2022-11-10T01:50:08.464Z,96041.00
2022-11-10T01:54:34.766Z,96040.00
2022-11-10T01:58:59.258Z,96049.00
2022-11-10T02:03:26.711Z,96039.00
2022-11-10T02:07:48.434Z,96046.00
2022-11-10T02:12:12.121Z,96048.00
2022-11-10T02:16:33.805Z,96050.00
2022-11-10T02:20:56.300Z,96049.00
2022-11-10T02:25:21.002Z,96042.00
2022-11-10T02:29:42.061Z,96050.00
2022-11-10T02:34:03.166Z,96053.00
2022-11-10T02:38:25.573Z,96066.00
2022-11-10T02:42:46.600Z,96083.00
2022-11-10T02:47:08.408Z,96087.00
2022-11-10T02:51:29.675Z,96097.00
2022-11-10T02:55:51.932Z,96104.00
2022-11-10T03:00:13.787Z,96106.00
2022-11-10T03:04:35.241Z,96123.00
2022-11-10T03:08:56.517Z,96131.00
2022-11-10T03:13:19.163Z,96144.00
2022-11-10T03:17:40.676Z,96150.00
2022-11-10T03:22:02.425Z,96158.00
2022-11-10T03:26:23.756Z,96166.00
2022-11-10T03:30:46.859Z,96157.00
2022-11-10T03:35:08.726Z,96163.00
2022-11-10T03:39:30.184Z,96165.00
2022-11-10T03:43:51.445Z,96175.00
2022-11-10T03:48:14.014Z,96193.00
2022-11-10T03:52:35.449Z,96200.00
2022-11-10T03:56:56.548Z,96199.00
2022-11-10T04:01:17.829Z,96199.00
2022-11-10T04:05:57.734Z,96196.00
2022-11-10T04:10:19.171Z,96198.00
2022-11-10T04:14:57.827Z,96210.00
2022-11-10T04:19:19.301Z,96216.00
2022-11-10T04:23:41.879Z,96214.00
2022-11-10T04:28:03.042Z,96222.00
2022-11-10T04:32:24.087Z,96234.00
2022-11-10T04:36:45.958Z,96252.00
2022-11-10T04:41:09.449Z,96253.00
2022-11-10T04:45:31.080Z,96258.00
2022-11-10T04:49:52.245Z,96264.00
2022-11-10T04:54:13.477Z,96264.00
2022-11-10T04:58:35.874Z,96260.00
2022-11-10T05:03:00.476Z,96258.00
2022-11-10T05:07:21.943Z,96259.00
2022-11-10T05:11:43.094Z,96274.00
2022-11-10T05:16:06.478Z,96278.00
2022-11-10T05:20:28.812Z,96277.00
2022-11-10T05:24:50.115Z,96286.00
2022-11-10T05:29:11.194Z,96293.00
2022-11-10T05:33:34.639Z,96308.00
2022-11-10T05:37:55.868Z,96313.00
2022-11-10T05:42:16.989Z,96332.00
2022-11-10T05:46:37.989Z,96323.00
2022-11-10T05:51:00.312Z,96336.00
2022-11-10T05:55:24.589Z,96336.00
2022-11-10T05:59:46.003Z,96342.00
2022-11-10T06:04:07.622Z,96347.00
2022-11-10T06:08:30.063Z,96364.00
2022-11-10T06:12:51.298Z,96372.00
2022-11-10T06:17:12.533Z,96384.00
2022-11-10T06:21:33.565Z,96389.00
2022-11-10T06:25:56.188Z,96408.00
2022-11-10T06:30:17.489Z,96423.00
2022-11-10T06:34:38.625Z,96419.00
2022-11-10T06:38:59.658Z,96421.00
2022-11-10T06:43:22.625Z,96425.00
2022-11-10T06:47:44.234Z,96435.00
2022-11-10T06:52:05.752Z,96445.00
2022-11-10T06:56:27.211Z,96457.00
2022-11-10T07:00:49.740Z,96471.00
2022-11-10T07:05:11.250Z,96472.00
2022-11-10T07:09:32.340Z,96485.00
2022-11-10T07:13:53.338Z,96490.00
2022-11-10T07:18:16.245Z,96494.00
2022-11-10T07:22:37.483Z,96503.00
2022-11-10T07:26:58.718Z,96514.00
2022-11-10T07:31:20.119Z,96517.00
2022-11-10T07:35:43.084Z,96526.00
2022-11-10T07:40:04.848Z,96530.00
2022-11-10T07:44:27.622Z,96541.00
2022-11-10T07:48:48.936Z,96540.00
2022-11-10T07:53:13.917Z,96536.00
2022-11-10T07:57:35.303Z,96557.00
2022-11-10T08:01:56.720Z,96559.00
2022-11-10T08:06:17.895Z,96555.00
2022-11-10T08:10:41.926Z,96563.00
2022-11-10T08:15:03.969Z,96564.00
2022-11-10T08:19:25.363Z,96568.00
2022-11-10T08:23:46.549Z,96581.00
2022-11-10T08:28:10.864Z,96586.00
2022-11-10T08:32:32.279Z,96585.00
2022-11-10T08:36:53.758Z,96579.00
2022-11-10T08:41:15.824Z,96587.00
2022-11-10T08:45:39.410Z,96583.00
2022-11-10T08:50:00.486Z,96594.00
2022-11-10T08:54:21.483Z,96604.00
2022-11-10T08:58:50.240Z,96615.00
2022-11-10T09:03:18.573Z,96620.00
2022-11-10T09:07:46.702Z,96634.00
2022-11-10T09:12:07.993Z,96641.00
2022-11-10T09:16:29.309Z,96643.00
2022-11-10T09:20:51.929Z,96655.00
2022-11-10T09:25:13.118Z,96654.00
2022-11-10T09:29:34.206Z,96670.00
2022-11-10T09:33:55.605Z,96676.00
2022-11-10T09:38:18.534Z,96689.00
2022-11-10T09:42:42.343Z,96688.00
2022-11-10T09:47:12.419Z,96690.00
2022-11-10T09:51:44.025Z,96699.00
2022-11-10T09:56:18.272Z,96690.00
2022-11-10T10:00:41.949Z,96697.00
2022-11-10T10:05:21.014Z,96710.00
2022-11-10T10:09:53.693Z,96716.00
2022-11-10T10:14:24.959Z,96716.00
2022-11-10T10:18:59.990Z,96723.00
2022-11-10T10:23:46.749Z,96734.00
2022-11-10T10:28:20.840Z,96735.00
2022-11-10T10:32:43.511Z,96734.00
2022-11-10T10:37:04.665Z,96736.00
2022-11-10T10:41:27.886Z,96729.00
2022-11-10T10:46:06.566Z,96735.00
2022-11-10T10:50:33.879Z,96739.00
2022-11-10T10:55:01.954Z,96732.00
2022-11-10T10:59:24.793Z,96755.00
2022-11-10T11:03:47.987Z,96749.00
2022-11-10T11:08:18.723Z,96750.00
2022-11-10T11:12:39.965Z,96757.00
2022-11-10T11:17:03.397Z,96759.00
2022-11-10T11:21:33.531Z,96782.00
2022-11-10T11:26:07.951Z,96781.00
2022-11-10T11:30:37.332Z,96783.00
2022-11-10T11:35:07.811Z,96782.00
2022-11-10T11:39:39.238Z,96783.00
2022-11-10T11:44:16.408Z,96782.00
2022-11-10T11:48:52.167Z,96782.00
2022-11-10T11:53:29.748Z,96776.00
2022-11-10T11:58:05.468Z,96769.00
2022-11-10T12:02:42.889Z,96765.00
2022-11-10T12:07:14.987Z,96763.00
2022-11-10T12:11:54.317Z,96764.00
2022-11-10T12:16:21.968Z,96761.00
2022-11-10T12:20:53.605Z,96764.00
2022-11-10T12:25:24.425Z,96777.00
2022-11-10T12:29:49.609Z,96779.00
2022-11-10T12:34:17.379Z,96775.00
2022-11-10T12:38:47.476Z,96776.00
2022-11-10T12:43:17.432Z,96769.00
2022-11-10T12:47:42.933Z,96764.00
2022-11-10T12:52:10.473Z,96765.00
2022-11-10T12:56:38.874Z,96771.00
2022-11-10T13:01:02.604Z,96772.00
2022-11-10T13:05:38.044Z,96773.00
2022-11-10T13:10:17.042Z,96760.00
2022-11-10T13:14:40.719Z,96771.00
2022-11-10T13:19:02.773Z,96783.00
2022-11-10T13:23:31.075Z,96788.00
2022-11-10T13:27:53.448Z,96781.00
2022-11-10T13:32:30.199Z,96793.00
2022-11-10T13:36:51.590Z,96782.00
2022-11-10T13:41:24.632Z,96780.00
2022-11-10T13:45:47.783Z,96782.00
2022-11-10T13:50:24.801Z,96779.00
2022-11-10T13:55:10.496Z,96772.00
2022-11-10T13:59:45.231Z,96771.00
2022-11-10T14:04:06.784Z,96768.00
2022-11-10T14:08:36.041Z,96757.00
2022-11-10T14:13:03.741Z,96767.00
2022-11-10T14:17:28.505Z,96778.00
2022-11-10T14:21:58.127Z,96789.00
2022-11-10T14:26:28.146Z,96798.00
2022-11-10T14:30:52.051Z,96802.00
2022-11-10T14:35:23.022Z,96809.00
2022-11-10T14:39:44.830Z,96817.00
2022-11-10T14:44:12.208Z,96807.00
2022-11-10T14:48:35.030Z,96810.00
2022-11-10T14:53:02.297Z,96807.00
2022-11-10T14:57:23.509Z,96811.00
2022-11-10T15:01:54.587Z,96804.00
2022-11-10T15:06:16.785Z,96829.00
2022-11-10T15:10:46.268Z,96816.00
2022-11-10T15:15:19.369Z,96818.00
2022-11-10T15:19:55.432Z,96819.00
2022-11-10T15:24:17.014Z,96811.00
2022-11-10T15:28:38.372Z,96801.00
2022-11-10T15:33:02.429Z,96807.00
2022-11-10T15:37:30.455Z,96799.00
2022-11-10T15:41:58.785Z,96810.00
2022-11-10T15:46:23.040Z,96825.00
2022-11-10T15:50:47.170Z,96829.00
2022-11-10T15:55:21.096Z,96826.00
2022-11-10T15:59:42.869Z,96829.00
2022-11-10T16:04:04.152Z,96835.00
2022-11-10T16:08:26.335Z,96840.00
2022-11-10T16:12:49.434Z,96849.00
2022-11-10T16:17:11.820Z,96865.00
2022-11-10T16:21:33.250Z,96872.00
2022-11-10T16:25:56.567Z,96868.00
2022-11-10T16:30:19.539Z,96878.00
2022-11-10T16:34:40.641Z,96878.00
2022-11-10T16:39:03.605Z,96883.00
2022-11-10T16:43:25.403Z,96899.00
2022-11-10T16:47:51.121Z,96903.00
2022-11-10T16:52:15.145Z,96913.00
2022-11-10T16:56:36.380Z,96923.00
2022-11-10T17:01:00.049Z,96938.00
2022-11-10T17:05:22.802Z,96943.00
2022-11-10T17:09:44.019Z,96947.00
2022-11-10T17:14:06.872Z,96943.00
2022-11-10T17:18:28.867Z,96947.00
2022-11-10T17:22:52.146Z,96955.00
2022-11-10T17:27:13.611Z,96964.00
2022-11-10T17:31:34.864Z,96970.00
2022-11-10T17:35:57.612Z,96967.00
2022-11-10T17:40:22.375Z,96962.00
2022-11-10T17:44:43.854Z,96951.00
2022-11-10T17:49:05.017Z,96960.00
2022-11-10T17:53:28.608Z,96970.00
2022-11-10T17:57:52.001Z,96962.00
2022-11-10T18:02:13.470Z,96974.00
2022-11-10T18:06:34.739Z,96972.00
2022-11-10T18:10:55.864Z,96983.00
2022-11-10T18:15:18.738Z,97003.00
2022-11-10T18:19:39.917Z,97008.00
2022-11-10T18:24:01.871Z,97013.00
2022-11-10T18:28:23.284Z,97011.00
2022-11-10T18:32:45.859Z,97024.00
2022-11-10T18:37:07.180Z,97021.00
2022-11-10T18:41:46.063Z,97008.00
2022-11-10T18:46:07.598Z,97005.00
2022-11-10T18:50:30.581Z,96989.00
2022-11-10T18:54:51.887Z,96967.00
2022-11-10T18:59:13.089Z,96971.00
2022-11-10T19:03:35.296Z,96963.00
2022-11-10T19:07:57.740Z,96972.00
2022-11-10T19:12:21.453Z,96979.00
2022-11-10T19:16:46.624Z,96990.00
2022-11-10T19:21:08.609Z,96987.00
2022-11-10T19:25:31.795Z,96989.00
2022-11-10T19:29:53.303Z,96997.00
2022-11-10T19:34:18.525Z,96988.00
2022-11-10T19:38:40.554Z,96990.00
2022-11-10T19:43:03.257Z,96987.00
2022-11-10T19:47:24.738Z,96984.00
2022-11-10T19:51:45.978Z,96984.00
2022-11-10T19:56:09.172Z,96977.00
2022-11-10T20:00:31.587Z,96980.00
2022-11-10T20:05:10.034Z,96984.00
2022-11-10T20:09:31.424Z,96996.00
2022-11-10T20:13:55.139Z,97004.00
2022-11-10T20:18:18.092Z,97018.00
2022-11-10T20:22:39.203Z,97016.00
2022-11-10T20:27:00.386Z,97021.00
2022-11-10T20:31:24.830Z,97002.00
2022-11-10T20:35:47.481Z,97007.00
2022-11-10T20:40:37.584Z,97015.00
2022-11-10T20:44:50.540Z,96992.00
2022-11-10T20:49:11.686Z,96999.00
2022-11-10T20:53:34.085Z,97012.00
2022-11-10T20:57:55.269Z,97015.00
2022-11-10T21:02:16.951Z,97022.00
2022-11-10T21:06:41.296Z,97023.00
2022-11-10T21:11:06.048Z,97026.00
2022-11-10T21:15:27.358Z,97035.00
2022-11-10T21:19:49.389Z,97029.00
2022-11-10T21:24:11.553Z,97037.00
2022-11-10T21:28:34.294Z,97024.00
2022-11-10T21:32:55.869Z,97018.00
2022-11-10T21:37:17.193Z,97010.00
2022-11-10T21:41:38.425Z,97019.00
2022-11-10T21:46:02.180Z,97014.00
2022-11-10T21:50:23.543Z,97015.00
2022-11-10T21:54:44.628Z,97020.00
2022-11-10T21:59:06.079Z,97012.00
2022-11-10T22:03:29.855Z,97010.00
2022-11-10T22:07:51.284Z,97013.00
2022-11-10T22:12:31.749Z,97015.00
2022-11-10T22:17:10.480Z,97021.00
2022-11-10T22:21:33.131Z,97023.00
2022-11-10T22:25:54.135Z,97023.00
2022-11-10T22:30:15.542Z,97017.00
2022-11-10T22:34:36.927Z,97009.00
2022-11-10T22:39:03.465Z,97011.00
2022-11-10T22:43:42.698Z,97026.00
2022-11-10T22:48:21.666Z,97024.00
2022-11-10T22:52:43.201Z,97020.00
2022-11-10T22:57:05.948Z,97016.00
2022-11-10T23:01:27.226Z,97015.00
2022-11-10T23:05:56.248Z,97013.00
2022-11-10T23:10:18.121Z,97012.00
2022-11-10T23:14:40.892Z,97003.00
2022-11-10T23:19:02.510Z,97006.00
2022-11-10T23:23:24.286Z,96999.00
2022-11-10T23:27:46.049Z,96998.00
2022-11-10T23:32:08.433Z,97004.00
2022-11-10T23:36:29.613Z,97005.00
2022-11-10T23:40:55.642Z,96999.00
2022-11-10T23:45:17.137Z,97001.00
2022-11-10T23:49:39.689Z,97007.00
2022-11-10T23:54:00.981Z,96997.00
2022-11-10T23:58:22.995Z,97001.00
